createdAt,value
2022-07-27T00:03:15.895Z,24.07
2022-07-27T00:08:19.501Z,24.06
2022-07-27T00:13:23.053Z,24.06
2022-07-27T00:18:26.817Z,24.02
2022-07-27T00:23:30.529Z,24.01
2022-07-27T00:28:34.257Z,23.98
2022-07-27T00:33:40.652Z,23.95
2022-07-27T00:38:44.004Z,23.93
2022-07-27T00:43:58.896Z,23.92
2022-07-27T00:49:02.530Z,23.92
2022-07-27T00:54:06.570Z,23.87
2022-07-27T00:59:12.186Z,23.86
2022-07-27T01:04:16.175Z,23.83
2022-07-27T01:09:20.144Z,23.80
2022-07-27T01:14:23.913Z,23.76
2022-07-27T01:19:32.774Z,23.74
2022-07-27T01:24:36.591Z,23.73
2022-07-27T01:29:40.907Z,23.74
2022-07-27T01:34:44.821Z,23.72
2022-07-27T01:39:48.213Z,23.68
2022-07-27T01:44:51.909Z,23.68
2022-07-27T01:49:55.555Z,23.68
2022-07-27T01:54:59.119Z,23.67
2022-07-27T02:00:09.811Z,23.67
2022-07-27T02:05:17.133Z,23.66
2022-07-27T02:10:20.657Z,23.63
2022-07-27T02:15:27.166Z,23.66
2022-07-27T02:20:31.427Z,23.64
2022-07-27T02:25:35.282Z,23.70
2022-07-27T02:30:38.761Z,23.72
2022-07-27T02:35:44.966Z,23.75
2022-07-27T02:40:53.496Z,23.77
2022-07-27T02:45:56.995Z,23.80
2022-07-27T02:51:01.695Z,23.86
2022-07-27T02:56:05.477Z,23.90
2022-07-27T03:01:09.097Z,23.96
2022-07-27T03:06:12.457Z,24.00
2022-07-27T03:11:16.202Z,24.05
2022-07-27T03:16:20.192Z,24.11
2022-07-27T03:21:24.369Z,24.14
2022-07-27T03:26:28.175Z,24.19
2022-07-27T03:31:31.945Z,24.25
2022-07-27T03:36:35.531Z,24.31
2022-07-27T03:41:39.648Z,24.40
2022-07-27T03:46:43.051Z,24.43
2022-07-27T03:51:46.817Z,24.46
2022-07-27T03:56:50.433Z,24.47
2022-07-27T04:01:54.626Z,24.47
2022-07-27T04:06:58.623Z,24.53
2022-07-27T04:12:02.169Z,24.58
2022-07-27T04:17:06.620Z,24.68
2022-07-27T04:22:10.876Z,24.82
2022-07-27T04:27:14.391Z,24.87
2022-07-27T04:32:17.805Z,24.88
2022-07-27T04:37:21.347Z,24.88
2022-07-27T04:42:25.450Z,25.04
2022-07-27T04:47:28.848Z,25.30
2022-07-27T04:52:32.478Z,25.47
2022-07-27T04:57:36.467Z,25.73
2022-07-27T05:02:43.087Z,25.99
2022-07-27T05:07:46.620Z,26.27
2022-07-27T05:12:50.325Z,26.46
2022-07-27T05:17:54.248Z,26.32
2022-07-27T05:22:57.930Z,26.29
2022-07-27T05:28:01.751Z,26.57
2022-07-27T05:33:05.606Z,26.64
2022-07-27T05:38:09.265Z,26.75
2022-07-27T05:43:12.774Z,27.22
2022-07-27T05:48:16.278Z,27.67
2022-07-27T05:53:20.243Z,27.67
2022-07-27T05:58:24.836Z,27.71
2022-07-27T06:03:28.399Z,27.63
2022-07-27T06:08:33.001Z,27.78
2022-07-27T06:13:36.663Z,27.99
2022-07-27T06:18:40.345Z,28.14
2022-07-27T06:23:44.026Z,28.20
2022-07-27T06:28:47.952Z,28.29
2022-07-27T06:33:52.223Z,28.67
2022-07-27T06:38:55.762Z,31.54
2022-07-27T06:43:59.259Z,34.43
2022-07-27T06:49:03.151Z,36.68
2022-07-27T06:54:06.821Z,37.49
2022-07-27T06:59:10.563Z,36.85
2022-07-27T07:04:14.355Z,36.20
2022-07-27T07:09:18.397Z,36.01
2022-07-27T07:14:22.402Z,36.34
2022-07-27T07:19:26.165Z,36.65
2022-07-27T07:24:29.710Z,37.07
2022-07-27T07:29:34.089Z,37.36
2022-07-27T07:34:37.632Z,37.56
2022-07-27T07:39:41.328Z,37.53
2022-07-27T07:44:44.936Z,37.16
2022-07-27T07:49:48.520Z,36.28
2022-07-27T07:54:52.035Z,35.37
2022-07-27T07:59:55.364Z,34.72
2022-07-27T08:05:00.277Z,34.34
2022-07-27T08:10:05.328Z,33.97
2022-07-27T08:15:09.466Z,33.65
2022-07-27T08:20:15.635Z,33.55
2022-07-27T08:25:19.246Z,33.38
2022-07-27T08:30:22.924Z,33.39
2022-07-27T08:35:29.391Z,33.47
2022-07-27T08:40:40.637Z,33.48
2022-07-27T08:45:52.961Z,33.55
2022-07-27T08:50:56.587Z,33.54
2022-07-27T08:56:00.959Z,33.59
2022-07-27T09:01:04.555Z,33.52
2022-07-27T09:06:08.127Z,33.41
2022-07-27T09:11:15.715Z,33.26
2022-07-27T09:17:03.046Z,33.15
2022-07-27T09:21:53.302Z,32.97
2022-07-27T09:27:05.061Z,32.83
2022-07-27T09:32:16.160Z,32.71
2022-07-27T09:37:28.050Z,32.57
2022-07-27T09:43:05.550Z,32.49
2022-07-27T09:48:21.219Z,32.47
2022-07-27T09:53:42.172Z,32.36
2022-07-27T09:58:50.346Z,32.20
2022-07-27T10:03:57.405Z,32.03
2022-07-27T10:09:01.156Z,31.91
2022-07-27T10:14:04.800Z,31.85
2022-07-27T10:19:18.310Z,31.79
2022-07-27T10:24:30.479Z,31.74
2022-07-27T10:29:34.244Z,31.73
2022-07-27T10:34:50.302Z,31.71
2022-07-27T10:40:08.066Z,31.55
2022-07-27T10:45:16.585Z,31.39
2022-07-27T10:50:21.627Z,31.38
2022-07-27T10:55:30.896Z,31.30
2022-07-27T11:00:54.641Z,31.23
2022-07-27T11:06:22.013Z,31.21
2022-07-27T11:11:26.977Z,31.13
2022-07-27T11:16:31.458Z,31.12
2022-07-27T11:21:37.744Z,31.08
2022-07-27T11:26:48.130Z,31.03
2022-07-27T11:31:57.230Z,30.93
2022-07-27T11:37:03.507Z,30.70
2022-07-27T11:42:11.484Z,30.49
2022-07-27T11:47:24.034Z,30.43
2022-07-27T11:52:31.307Z,30.41
2022-07-27T11:57:35.531Z,30.34
2022-07-27T12:02:52.432Z,30.20
2022-07-27T12:07:56.530Z,30.12
2022-07-27T12:13:00.069Z,30.07
2022-07-27T12:18:03.782Z,30.04
2022-07-27T12:23:09.259Z,30.03
2022-07-27T12:28:14.879Z,29.92
2022-07-27T12:33:30.459Z,29.94
2022-07-27T12:38:52.070Z,29.85
2022-07-27T12:44:09.964Z,29.76
2022-07-27T12:49:17.169Z,29.77
2022-07-27T12:54:21.082Z,29.69
2022-07-27T12:59:24.474Z,29.56
2022-07-27T13:04:29.029Z,29.40
2022-07-27T13:10:02.261Z,29.39
2022-07-27T13:14:57.156Z,29.29
2022-07-27T13:20:00.741Z,29.16
2022-07-27T13:25:15.677Z,29.14
2022-07-27T13:30:20.589Z,29.13
2022-07-27T13:35:24.305Z,29.08
2022-07-27T13:40:27.625Z,29.01
2022-07-27T13:45:31.223Z,28.92
2022-07-27T13:50:46.836Z,28.91
2022-07-27T13:55:50.391Z,28.83
2022-07-27T14:00:53.999Z,28.77
2022-07-27T14:05:57.394Z,28.71
2022-07-27T14:11:03.656Z,28.57
2022-07-27T14:16:07.661Z,28.53
2022-07-27T14:21:11.545Z,28.46
2022-07-27T14:26:15.280Z,28.41
2022-07-27T14:31:18.746Z,28.43
2022-07-27T14:36:22.234Z,28.45
2022-07-27T14:41:25.406Z,28.54
2022-07-27T14:46:31.429Z,28.50
2022-07-27T14:51:37.982Z,28.44
2022-07-27T14:56:41.768Z,28.42
2022-07-27T15:01:45.447Z,28.44
2022-07-27T15:06:52.179Z,28.38
2022-07-27T15:12:00.438Z,28.39
2022-07-27T15:17:04.144Z,28.27
2022-07-27T15:22:07.553Z,28.17
2022-07-27T15:27:11.861Z,28.09
2022-07-27T15:32:15.358Z,27.98
2022-07-27T15:37:20.271Z,27.85
2022-07-27T15:42:23.772Z,27.80
2022-07-27T15:47:27.235Z,27.73
2022-07-27T15:52:31.141Z,27.69
2022-07-27T15:57:34.610Z,27.62
2022-07-27T16:02:38.603Z,27.51
2022-07-27T16:07:43.001Z,27.37
2022-07-27T16:12:46.428Z,27.29
2022-07-27T16:17:49.981Z,27.20
2022-07-27T16:22:55.738Z,27.08
2022-07-27T16:28:00.481Z,26.99
2022-07-27T16:33:08.182Z,26.93
2022-07-27T16:38:17.015Z,26.84
2022-07-27T16:43:20.839Z,26.75
2022-07-27T16:48:24.960Z,26.69
2022-07-27T16:53:28.961Z,26.61
2022-07-27T16:58:32.560Z,26.54
2022-07-27T17:03:36.826Z,26.48
2022-07-27T17:08:41.320Z,26.43
2022-07-27T17:13:48.927Z,26.37
2022-07-27T17:18:52.652Z,26.30
2022-07-27T17:23:56.117Z,26.25
2022-07-27T17:28:59.758Z,26.19
2022-07-27T17:34:03.185Z,26.15
2022-07-27T17:39:07.016Z,26.10
2022-07-27T17:44:10.837Z,26.05
2022-07-27T17:49:14.897Z,26.02
2022-07-27T17:54:18.750Z,25.97
2022-07-27T17:59:38.518Z,25.94
2022-07-27T18:04:42.685Z,25.91
2022-07-27T18:09:52.589Z,25.87
2022-07-27T18:14:57.021Z,25.85
2022-07-27T18:20:00.654Z,25.84
2022-07-27T18:25:05.940Z,25.80
2022-07-27T18:30:09.821Z,25.78
2022-07-27T18:35:14.167Z,25.74
2022-07-27T18:40:17.744Z,25.72
2022-07-27T18:45:21.370Z,25.69
2022-07-27T18:50:28.239Z,25.68
2022-07-27T18:55:32.048Z,25.65
2022-07-27T19:00:35.648Z,25.64
2022-07-27T19:05:41.359Z,25.61
2022-07-27T19:10:46.188Z,25.60
2022-07-27T19:15:50.205Z,25.56
2022-07-27T19:20:53.452Z,25.53
2022-07-27T19:25:56.707Z,25.53
2022-07-27T19:31:00.115Z,25.52
2022-07-27T19:36:03.820Z,25.50
2022-07-27T19:41:07.716Z,25.47
2022-07-27T19:46:11.234Z,25.45
2022-07-27T19:51:14.942Z,25.42
2022-07-27T19:56:18.471Z,25.40
2022-07-27T20:01:22.151Z,25.38
2022-07-27T20:06:26.591Z,25.37
2022-07-27T20:11:30.528Z,25.35
2022-07-27T20:16:34.480Z,25.33
2022-07-27T20:21:39.847Z,25.31
2022-07-27T20:26:49.047Z,25.32
2022-07-27T20:31:55.405Z,25.29
2022-07-27T20:36:59.003Z,25.28
2022-07-27T20:42:02.428Z,25.27
2022-07-27T20:47:06.930Z,25.26
2022-07-27T20:52:11.108Z,25.25
2022-07-27T20:57:14.653Z,25.26
2022-07-27T21:02:18.201Z,25.25
2022-07-27T21:07:22.098Z,25.23
2022-07-27T21:12:28.011Z,25.24
2022-07-27T21:17:32.218Z,25.25
2022-07-27T21:22:36.305Z,25.22
2022-07-27T21:27:40.044Z,25.21
2022-07-27T21:32:45.914Z,25.19
2022-07-27T21:37:49.646Z,25.18
2022-07-27T21:42:53.289Z,25.15
2022-07-27T21:47:56.627Z,25.13
2022-07-27T21:53:00.189Z,25.09
2022-07-27T21:58:03.616Z,25.08
2022-07-27T22:03:07.950Z,25.05
2022-07-27T22:08:11.510Z,25.02
2022-07-27T22:13:14.918Z,24.98
2022-07-27T22:18:18.494Z,24.97
2022-07-27T22:23:22.176Z,24.96
2022-07-27T22:28:26.495Z,24.93
2022-07-27T22:33:30.086Z,24.90
2022-07-27T22:38:33.657Z,24.90
2022-07-27T22:43:36.963Z,24.89
2022-07-27T22:48:40.397Z,24.88
2022-07-27T22:53:44.128Z,24.85
2022-07-27T22:58:47.549Z,24.83
2022-07-27T23:03:51.649Z,24.81
2022-07-27T23:08:57.680Z,24.79
2022-07-27T23:14:00.990Z,24.78
2022-07-27T23:19:04.572Z,24.77
2022-07-27T23:24:09.946Z,24.74
2022-07-27T23:29:14.846Z,24.73
2022-07-27T23:34:18.327Z,24.70
2022-07-27T23:39:21.537Z,24.67
2022-07-27T23:44:24.973Z,24.63
2022-07-27T23:49:28.899Z,24.57
2022-07-27T23:54:32.447Z,24.52
2022-07-27T23:59:36.376Z,24.45
